KESCKUES

Guest
Details From KESC - Delta Co
To KUES - Waukesha Co
Flight Number -
Tags Decoded
Created
Modified
Stats Distance 169 nm / 313 km
Max Altitude 0 ft / 0 m
Waypoints 2
Social Downloads 1
Likes 0
Share VATSIM

Download

Looking for another format? Having issues loading an existing format? Contact us
Advertisement - Login to hide

Notes

Decoded

Route

KESC KUES

ID Type Via Altitude Latitude Longitude Leg Dist Tot Dist Heading (true) Name
O KESC APT - 0 ft / 0 m 45.73211˚ -87.08644˚ - 0 nm - -
O KUES APT - 0 ft / 0 m 43.04392˚ -88.23333˚ 168 nm 168 nm 197° / 197° -

Altitude Profile

Advertisement - Login to hide

Weather


0- 5 10 15 20 25 30 35+ Temperature / ° C

Clouds and Precipitation
Forecast for 2017-12-15 00:00 UTC. Updated 2 hours ago

Ground ~20,000 ft ~40,000 ft Winds

KESC

Details ICAO KESC (ESC)
Name DELTA CO
Region United States
Timezone America/Detroit (UTC-5.0)
Stats Elevation 609 ft / 186 m (AMSL)
Location 45.722968° -87.092906°
Runways 2
Magnetic Variation 5.080° W

METAR

KESC 150056Z AUTO 25007KT 10SM OVC070 M08/M11 A2996 RMK AO2 SLP171 T10781111 FZRANO

Decode

TAF

Not found

Departure Runways

ID Width Length Bearing (true) Bearing (mag) Surface Threshold Offset Overrun Length
09 151 ft / 46 m 6,485 ft / 1,977 m 90.88° 95.96° Asphalt 0 ft / 0 m 0 ft / 0 m
18 98 ft / 30 m 5,003 ft / 1,525 m 180.88° 185.96° Asphalt 0 ft / 0 m 0 ft / 0 m
27 151 ft / 46 m 6,485 ft / 1,977 m 270.90° 275.98° Asphalt 0 ft / 0 m 0 ft / 0 m
36 98 ft / 30 m 5,003 ft / 1,525 m 0.88° 5.96° Asphalt 0 ft / 0 m 0 ft / 0 m

KUES

Details ICAO KUES
Name Waukesha Co
Region United States
Timezone America/Chicago (UTC-6.0)
Stats Elevation 911 ft / 278 m (AMSL)
Location 43.040641° -88.236487°
Runways 2
Magnetic Variation 3.638° W

METAR

KUES 150045Z 20003KT 10SM OVC100 M08/M13 A3005

Decode

TAF

TAF KUES 142326Z 1500/1524 26005KT P6SM BKN200 FM151000 26008KT P6SM BKN030 FM151600 28012G22KT P6SM BKN060

Decode

Destination Runways

ID Width Length Bearing (true) Bearing (mag) Surface Threshold Offset Overrun Length
10 98 ft / 30 m 5,837 ft / 1,779 m 101.99° 105.63° Concrete 0 ft / 0 m 0 ft / 0 m
18 75 ft / 23 m 3,602 ft / 1,098 m 185.25° 188.89° Asphalt 0 ft / 0 m 0 ft / 0 m
28 98 ft / 30 m 5,837 ft / 1,779 m 282.00° 285.64° Concrete 0 ft / 0 m 0 ft / 0 m
36 75 ft / 23 m 3,602 ft / 1,098 m 5.25° 8.89° Asphalt 0 ft / 0 m 0 ft / 0 m

Approach Navaids

Runway Type Ident Frequency Range Bearing (true) Bearing (mag) Slope Elevation
10 Localiser ISKC 109.50 MHz 18 nm / 33 km 102.00° 105.64° - 911 ft / 278 m (AMSL)
10 Glidescope ISKC 109.50 MHz 10 nm / 19 km 102.00° 105.64° 3.00° 897 ft / 273 m (AMSL)

Popular Alternatives